createdAt,value
2023-02-12T00:00:43.600Z,2.267150879
2023-02-12T00:01:45.088Z,2.226867676
2023-02-12T00:02:45.795Z,2.226867676
2023-02-12T00:03:46.552Z,2.186584473
2023-02-12T00:05:17.835Z,2.176513672
2023-02-12T00:06:19.275Z,2.14630127
2023-02-12T00:07:19.912Z,2.14630127
2023-02-12T00:08:20.586Z,2.14630127
2023-02-12T00:09:21.325Z,2.14630127
2023-02-12T00:10:22.029Z,2.136230469
2023-02-12T00:11:22.626Z,2.116088867
2023-02-12T00:12:23.302Z,2.14630127
2023-02-12T00:13:23.974Z,2.176513672
2023-02-12T00:14:24.608Z,2.186584473
2023-02-12T00:15:25.871Z,2.14630127
2023-02-12T00:16:26.364Z,2.186584473
2023-02-12T00:17:27.742Z,2.196655273
2023-02-12T00:18:28.430Z,2.196655273
2023-02-12T00:19:29.097Z,2.186584473
2023-02-12T00:20:29.998Z,2.186584473
2023-02-12T00:21:30.462Z,2.216796875
2023-02-12T00:22:31.834Z,2.216796875
2023-02-12T00:23:32.422Z,2.216796875
2023-02-12T00:24:33.111Z,2.226867676
2023-02-12T00:25:33.857Z,2.226867676
2023-02-12T00:26:35.348Z,2.216796875
2023-02-12T00:27:36.001Z,2.186584473
2023-02-12T00:28:36.695Z,2.176513672
2023-02-12T00:29:37.323Z,2.14630127
2023-02-12T00:30:38.098Z,2.14630127
2023-02-12T00:31:38.844Z,2.176513672
2023-02-12T00:32:39.478Z,2.176513672
2023-02-12T00:33:40.185Z,2.186584473
2023-02-12T00:34:40.972Z,2.186584473
2023-02-12T00:35:41.795Z,2.216796875
2023-02-12T00:36:43.325Z,2.216796875
2023-02-12T00:37:44.019Z,2.176513672
2023-02-12T00:38:44.732Z,2.176513672
2023-02-12T00:39:45.326Z,2.176513672
2023-02-12T00:40:46.078Z,2.116088867
2023-02-12T00:42:17.485Z,2.065734863
2023-02-12T00:43:18.103Z,2.015380859
2023-02-12T00:44:18.769Z,2.045593262
2023-02-12T00:45:20.499Z,2.035522461
2023-02-12T00:46:21.284Z,2.005310059
2023-02-12T00:47:22.493Z,1.975097656
2023-02-12T00:48:23.208Z,1.954956055
2023-02-12T00:49:23.902Z,1.904602051
2023-02-12T00:50:24.470Z,1.934814453
2023-02-12T00:51:25.279Z,1.924743652
2023-02-12T00:52:25.852Z,1.934814453
2023-02-12T00:53:26.502Z,1.954956055
2023-02-12T00:54:27.156Z,1.934814453
2023-02-12T00:55:27.793Z,1.934814453
2023-02-12T00:56:29.279Z,1.904602051
2023-02-12T00:57:30.109Z,1.904602051
2023-02-12T00:58:31.306Z,1.904602051
2023-02-12T00:59:32.004Z,1.934814453
2023-02-12T01:00:32.616Z,1.934814453
2023-02-12T01:01:33.354Z,1.954956055
2023-02-12T01:02:34.459Z,1.954956055
2023-02-12T01:03:35.233Z,1.954956055
2023-02-12T01:04:36.003Z,1.995239258
2023-02-12T01:05:36.663Z,1.995239258
2023-02-12T01:06:38.326Z,1.975097656
2023-02-12T01:07:38.966Z,1.954956055
2023-02-12T01:08:39.731Z,1.975097656
2023-02-12T01:09:40.708Z,1.995239258
2023-02-12T01:10:41.339Z,1.954956055
2023-02-12T01:11:42.002Z,1.954956055
2023-02-12T01:12:42.653Z,1.934814453
2023-02-12T01:13:43.393Z,1.934814453
2023-02-12T01:14:44.124Z,1.995239258
2023-02-12T01:15:45.398Z,2.005310059
2023-02-12T01:17:17.144Z,1.995239258
2023-02-12T01:18:17.768Z,1.975097656
2023-02-12T01:19:18.402Z,1.954956055
2023-02-12T01:20:19.138Z,1.904602051
2023-02-12T01:21:19.938Z,1.904602051
2023-02-12T01:22:20.592Z,1.89453125
2023-02-12T01:23:21.236Z,1.89453125
2023-02-12T01:24:21.905Z,1.904602051
2023-02-12T01:25:22.699Z,1.924743652
2023-02-12T01:26:24.074Z,1.89453125
2023-02-12T01:27:24.774Z,1.904602051
2023-02-12T01:28:26.127Z,1.884460449
2023-02-12T01:29:26.758Z,1.854248047
2023-02-12T01:30:27.481Z,1.834106445
2023-02-12T01:31:28.308Z,1.854248047
2023-02-12T01:32:28.920Z,1.854248047
2023-02-12T01:33:29.697Z,1.904602051
2023-02-12T01:34:30.323Z,1.864318848
2023-02-12T01:35:30.945Z,1.834106445
2023-02-12T01:36:32.547Z,1.834106445
2023-02-12T01:37:33.223Z,1.793823242
2023-02-12T01:38:33.864Z,1.753540039
2023-02-12T01:39:34.536Z,1.753540039
2023-02-12T01:40:35.153Z,1.753540039
2023-02-12T01:41:35.871Z,1.753540039
2023-02-12T01:42:36.626Z,1.723327637
2023-02-12T01:43:37.262Z,1.703186035
2023-02-12T01:44:38.501Z,1.683044434
2023-02-12T01:45:39.106Z,1.672973633
2023-02-12T01:46:40.577Z,1.683044434
2023-02-12T01:47:41.247Z,1.683044434
2023-02-12T01:48:41.867Z,1.683044434
2023-02-12T01:49:42.522Z,1.672973633
2023-02-12T01:50:43.247Z,1.672973633
2023-02-12T01:51:43.837Z,1.672973633
2023-02-12T01:52:44.604Z,1.672973633
2023-02-12T01:53:45.237Z,1.683044434
2023-02-12T01:55:16.559Z,1.703186035
2023-02-12T01:56:17.166Z,1.703186035
2023-02-12T01:57:18.785Z,1.703186035
2023-02-12T01:58:19.551Z,1.723327637
2023-02-12T01:59:20.098Z,1.703186035
2023-02-12T02:00:20.843Z,1.672973633
2023-02-12T02:01:21.540Z,1.683044434
2023-02-12T02:02:22.159Z,1.703186035
2023-02-12T02:03:22.919Z,1.683044434
2023-02-12T02:04:23.596Z,1.652832031
2023-02-12T02:05:24.996Z,1.652832031
2023-02-12T02:06:25.797Z,1.64276123
2023-02-12T02:07:27.276Z,1.612548828
2023-02-12T02:08:27.961Z,1.612548828
2023-02-12T02:09:28.657Z,1.612548828
2023-02-12T02:10:29.264Z,1.612548828
2023-02-12T02:11:30.047Z,1.572265625
2023-02-12T02:12:31.259Z,1.63269043
2023-02-12T02:13:32.002Z,1.63269043
2023-02-12T02:14:32.700Z,1.602478027
2023-02-12T02:15:34.314Z,1.612548828
2023-02-12T02:16:36.015Z,1.612548828
2023-02-12T02:17:36.719Z,1.602478027
2023-02-12T02:18:38.295Z,1.562194824
2023-02-12T02:19:38.988Z,1.542053223
2023-02-12T02:20:39.689Z,1.562194824
2023-02-12T02:21:40.420Z,1.602478027
2023-02-12T02:22:41.074Z,1.612548828
2023-02-12T02:23:41.725Z,1.64276123
2023-02-12T02:24:42.334Z,1.652832031
2023-02-12T02:25:43.050Z,1.683044434
2023-02-12T02:26:44.480Z,1.703186035
2023-02-12T02:27:45.584Z,1.703186035
2023-02-12T02:29:16.517Z,1.63269043
2023-02-12T02:30:17.144Z,1.572265625
2023-02-12T02:31:18.010Z,1.521911621
2023-02-12T02:32:18.608Z,1.491699219
2023-02-12T02:33:19.253Z,1.471557617
2023-02-12T02:34:19.848Z,1.461486816
2023-02-12T02:35:20.415Z,1.441345215
2023-02-12T02:36:21.036Z,1.471557617
2023-02-12T02:37:22.370Z,1.491699219
2023-02-12T02:38:23.110Z,1.491699219
2023-02-12T02:39:23.768Z,1.491699219
2023-02-12T02:40:24.362Z,1.521911621
2023-02-12T02:41:25.012Z,1.491699219
2023-02-12T02:42:25.603Z,1.471557617
2023-02-12T02:43:26.281Z,1.471557617
2023-02-12T02:44:27.046Z,1.471557617
2023-02-12T02:45:28.329Z,1.491699219
2023-02-12T02:46:29.112Z,1.542053223
2023-02-12T02:47:30.409Z,1.572265625
2023-02-12T02:48:31.074Z,1.562194824
2023-02-12T02:49:31.810Z,1.542053223
2023-02-12T02:50:32.472Z,1.531982422
2023-02-12T02:51:33.193Z,1.521911621
2023-02-12T02:52:33.874Z,1.471557617
2023-02-12T02:53:34.550Z,1.431274414
2023-02-12T02:54:35.248Z,1.421203613
2023-02-12T02:55:36.005Z,1.441345215
2023-02-12T02:56:36.693Z,1.38092041
2023-02-12T02:57:38.340Z,1.431274414
2023-02-12T02:58:39.021Z,1.431274414
2023-02-12T02:59:39.806Z,1.390991211
2023-02-12T03:00:40.792Z,1.350708008
2023-02-12T03:01:41.425Z,1.340637207
2023-02-12T03:02:42.265Z,1.280212402
2023-02-12T03:03:42.932Z,1.179504395
2023-02-12T03:04:43.602Z,1.179504395
2023-02-12T03:05:44.309Z,1.199645996
2023-02-12T03:07:16.523Z,1.199645996
2023-02-12T03:08:17.224Z,1.199645996
2023-02-12T03:09:18.024Z,1.239929199
2023-02-12T03:10:18.776Z,1.239929199
2023-02-12T03:11:19.483Z,1.260070801
2023-02-12T03:12:20.208Z,1.260070801
2023-02-12T03:13:20.926Z,1.310424805
2023-02-12T03:14:21.574Z,1.320495605
2023-02-12T03:15:22.227Z,1.340637207
2023-02-12T03:16:23.895Z,1.38092041
2023-02-12T03:17:25.470Z,1.390991211
2023-02-12T03:18:26.103Z,1.421203613
2023-02-12T03:19:26.773Z,1.471557617
2023-02-12T03:20:27.521Z,1.421203613
2023-02-12T03:21:28.310Z,1.441345215
2023-02-12T03:22:29.022Z,1.461486816
2023-02-12T03:23:29.890Z,1.461486816
2023-02-12T03:24:30.586Z,1.360778809
2023-02-12T03:25:31.279Z,1.360778809
2023-02-12T03:26:31.952Z,1.340637207
2023-02-12T03:27:33.556Z,1.310424805
2023-02-12T03:28:34.438Z,1.310424805
2023-02-12T03:29:35.006Z,1.310424805
2023-02-12T03:30:35.739Z,1.310424805
2023-02-12T03:31:36.408Z,1.340637207
2023-02-12T03:32:37.148Z,1.360778809
2023-02-12T03:33:37.839Z,1.360778809
2023-02-12T03:34:38.546Z,1.360778809
2023-02-12T03:35:39.271Z,1.350708008
2023-02-12T03:36:39.890Z,1.350708008
2023-02-12T03:37:40.837Z,1.350708008
2023-02-12T03:38:42.422Z,1.350708008
2023-02-12T03:39:43.023Z,1.340637207
2023-02-12T03:40:43.650Z,1.340637207
2023-02-12T03:41:44.682Z,1.360778809
2023-02-12T03:43:15.757Z,1.38092041
2023-02-12T03:44:16.560Z,1.360778809
2023-02-12T03:45:17.129Z,1.340637207
2023-02-12T03:46:17.833Z,1.310424805
2023-02-12T03:47:18.987Z,1.320495605
2023-02-12T03:48:19.644Z,1.340637207
2023-02-12T03:49:20.416Z,1.340637207
2023-02-12T03:50:21.062Z,1.340637207
2023-02-12T03:51:21.817Z,1.310424805
2023-02-12T03:52:22.367Z,1.320495605
2023-02-12T03:53:23.027Z,1.320495605
2023-02-12T03:54:23.724Z,1.290283203
2023-02-12T03:55:24.374Z,1.310424805
2023-02-12T03:56:25.164Z,1.320495605
2023-02-12T03:57:26.477Z,1.320495605
2023-02-12T03:58:27.111Z,1.340637207
2023-02-12T03:59:27.740Z,1.340637207
2023-02-12T04:00:28.542Z,1.340637207
2023-02-12T04:01:29.382Z,1.340637207
2023-02-12T04:02:29.898Z,1.320495605
2023-02-12T04:03:30.616Z,1.280212402
2023-02-12T04:04:31.365Z,1.280212402
2023-02-12T04:05:32.005Z,1.310424805
2023-02-12T04:06:32.734Z,1.350708008
2023-02-12T04:07:34.010Z,1.360778809
2023-02-12T04:08:34.673Z,1.360778809
2023-02-12T04:09:35.367Z,1.340637207
2023-02-12T04:10:35.960Z,1.360778809
2023-02-12T04:11:36.767Z,1.340637207
2023-02-12T04:12:37.546Z,1.340637207
2023-02-12T04:13:38.233Z,1.350708008
2023-02-12T04:14:38.992Z,1.38092041
2023-02-12T04:15:40.484Z,1.350708008
2023-02-12T04:16:41.180Z,1.280212402
2023-02-12T04:17:42.506Z,1.179504395
2023-02-12T04:18:43.241Z,1.139221191
2023-02-12T04:19:44.339Z,1.078796387
2023-02-12T04:21:15.381Z,1.068725586
2023-02-12T04:22:15.989Z,1.068725586
2023-02-12T04:23:16.716Z,1.078796387
2023-02-12T04:24:17.372Z,1.078796387
2023-02-12T04:25:18.000Z,1.109008789
2023-02-12T04:26:18.680Z,1.139221191
2023-02-12T04:27:19.325Z,1.159362793
2023-02-12T04:28:20.983Z,1.139221191
2023-02-12T04:29:21.625Z,1.129150391
2023-02-12T04:30:22.377Z,1.078796387
2023-02-12T04:31:23.240Z,1.078796387
2023-02-12T04:32:23.739Z,1.139221191
2023-02-12T04:33:24.352Z,1.159362793
2023-02-12T04:34:25.061Z,1.169433594
2023-02-12T04:35:25.812Z,1.199645996
2023-02-12T04:36:26.456Z,1.25
2023-02-12T04:37:27.173Z,1.209716797
2023-02-12T04:38:28.793Z,1.179504395
2023-02-12T04:39:29.547Z,1.199645996
2023-02-12T04:40:30.283Z,1.169433594
2023-02-12T04:41:30.875Z,1.139221191
2023-02-12T04:42:31.627Z,1.139221191
2023-02-12T04:43:34.160Z,1.109008789
2023-02-12T04:44:32.939Z,1.109008789
2023-02-12T04:45:34.558Z,1.078796387
2023-02-12T04:46:35.292Z,1.078796387
2023-02-12T04:47:36.030Z,1.078796387
2023-02-12T04:48:37.300Z,1.078796387
2023-02-12T04:49:37.979Z,1.078796387
2023-02-12T04:50:38.785Z,1.068725586
2023-02-12T04:51:39.446Z,1.058654785
2023-02-12T04:52:40.146Z,1.058654785
2023-02-12T04:53:40.878Z,1.058654785
2023-02-12T04:54:41.604Z,1.058654785
2023-02-12T04:55:42.242Z,1.068725586
2023-02-12T04:56:42.929Z,1.068725586
2023-02-12T04:58:14.997Z,1.098937988
2023-02-12T04:59:15.702Z,1.058654785
2023-02-12T05:00:16.315Z,1.078796387
2023-02-12T05:01:17.185Z,1.058654785
2023-02-12T05:02:17.818Z,1.068725586
2023-02-12T05:03:18.446Z,1.098937988
2023-02-12T05:04:19.202Z,1.098937988
2023-02-12T05:05:20.066Z,1.109008789
2023-02-12T05:06:20.628Z,1.068725586
2023-02-12T05:07:21.373Z,1.058654785
2023-02-12T05:08:22.841Z,1.058654785
2023-02-12T05:09:23.596Z,1.018371582
2023-02-12T05:10:24.223Z,0.98815918
2023-02-12T05:11:24.933Z,0.957946777
2023-02-12T05:12:25.552Z,0.978088379
2023-02-12T05:13:26.890Z,0.98815918
2023-02-12T05:14:27.614Z,0.98815918
2023-02-12T05:15:28.323Z,0.957946777
2023-02-12T05:16:28.996Z,0.957946777
2023-02-12T05:17:29.664Z,0.98815918
2023-02-12T05:18:31.071Z,0.99822998
2023-02-12T05:19:31.828Z,1.068725586
2023-02-12T05:20:32.599Z,1.078796387
2023-02-12T05:21:33.307Z,1.098937988
2023-02-12T05:22:33.967Z,1.078796387
2023-02-12T05:23:34.650Z,1.038513184
2023-02-12T05:24:35.322Z,1.058654785
2023-02-12T05:25:36.094Z,1.058654785
2023-02-12T05:26:36.679Z,0.99822998
2023-02-12T05:27:37.319Z,0.99822998
2023-02-12T05:28:38.877Z,0.98815918
2023-02-12T05:29:39.587Z,0.98815918
2023-02-12T05:30:40.385Z,0.99822998
2023-02-12T05:31:41.285Z,0.957946777
2023-02-12T05:32:41.781Z,0.957946777
2023-02-12T05:33:42.362Z,0.957946777
2023-02-12T05:34:43.448Z,0.887451172
2023-02-12T05:36:14.517Z,0.887451172
2023-02-12T05:37:15.246Z,0.887451172
2023-02-12T05:38:16.463Z,0.877380371
2023-02-12T05:39:17.130Z,0.877380371
2023-02-12T05:40:17.732Z,0.877380371
2023-02-12T05:41:18.406Z,0.897521973
2023-02-12T05:42:19.120Z,0.927734375
2023-02-12T05:43:19.862Z,0.927734375
2023-02-12T05:44:20.620Z,0.957946777
2023-02-12T05:45:21.347Z,0.957946777
2023-02-12T05:46:22.214Z,0.947875977
2023-02-12T05:47:23.318Z,0.917663574
2023-02-12T05:48:24.981Z,0.887451172
2023-02-12T05:49:25.651Z,0.927734375
2023-02-12T05:50:26.296Z,0.897521973
2023-02-12T05:51:27.050Z,0.887451172
2023-02-12T05:52:27.850Z,0.877380371
2023-02-12T05:53:28.686Z,0.85723877
2023-02-12T05:54:29.238Z,0.85723877
2023-02-12T05:55:29.981Z,0.887451172
2023-02-12T05:56:30.650Z,0.897521973
2023-02-12T05:57:31.380Z,0.917663574
2023-02-12T05:58:32.980Z,0.917663574
2023-02-12T05:59:33.670Z,0.887451172
2023-02-12T06:00:34.361Z,0.897521973
2023-02-12T06:01:35.031Z,0.877380371
2023-02-12T06:02:35.858Z,0.85723877
2023-02-12T06:03:36.476Z,0.837097168
2023-02-12T06:04:37.109Z,0.806884766
2023-02-12T06:05:37.738Z,0.796813965
2023-02-12T06:06:38.303Z,0.837097168
2023-02-12T06:07:38.955Z,0.917663574
2023-02-12T06:08:40.525Z,0.917663574
2023-02-12T06:09:41.222Z,0.887451172
2023-02-12T06:10:41.902Z,0.927734375
2023-02-12T06:11:43.154Z,0.927734375
2023-02-12T06:13:14.164Z,0.947875977
2023-02-12T06:14:14.927Z,0.978088379
2023-02-12T06:15:15.538Z,0.978088379
2023-02-12T06:16:16.197Z,0.917663574
2023-02-12T06:17:17.445Z,0.877380371
2023-02-12T06:18:18.243Z,0.897521973
2023-02-12T06:19:19.877Z,0.837097168
2023-02-12T06:20:20.554Z,0.796813965
2023-02-12T06:21:21.171Z,0.746459961
2023-02-12T06:22:21.878Z,0.716247559
2023-02-12T06:23:22.641Z,0.716247559
2023-02-12T06:24:23.333Z,0.73638916
2023-02-12T06:25:24.158Z,0.716247559
2023-02-12T06:26:24.766Z,0.706176758
2023-02-12T06:27:25.490Z,0.696105957
2023-02-12T06:28:27.136Z,0.696105957
2023-02-12T06:29:27.641Z,0.696105957
2023-02-12T06:30:28.358Z,0.696105957
2023-02-12T06:31:29.289Z,0.696105957
2023-02-12T06:32:30.540Z,0.706176758
2023-02-12T06:33:31.286Z,0.746459961
2023-02-12T06:34:31.932Z,0.776672363
2023-02-12T06:35:32.620Z,0.85723877
2023-02-12T06:36:33.339Z,0.85723877
2023-02-12T06:37:34.061Z,0.837097168
2023-02-12T06:38:35.483Z,0.816955566
2023-02-12T06:39:36.157Z,0.806884766
2023-02-12T06:40:36.912Z,0.816955566
2023-02-12T06:41:37.561Z,0.837097168
2023-02-12T06:42:38.194Z,0.837097168
2023-02-12T06:43:38.927Z,0.837097168
2023-02-12T06:44:39.718Z,0.837097168
2023-02-12T06:45:40.696Z,0.816955566
2023-02-12T06:46:41.492Z,0.837097168
2023-02-12T06:48:13.311Z,0.837097168
2023-02-12T06:49:14.784Z,0.837097168
2023-02-12T06:50:15.382Z,0.816955566
2023-02-12T06:51:15.998Z,0.816955566
2023-02-12T06:52:16.679Z,0.806884766
2023-02-12T06:53:17.340Z,0.837097168
2023-02-12T06:54:18.077Z,0.877380371
2023-02-12T06:55:18.639Z,0.837097168
2023-02-12T06:56:19.378Z,0.877380371
2023-02-12T06:57:20.033Z,0.85723877
2023-02-12T06:58:21.516Z,0.837097168
2023-02-12T06:59:22.253Z,0.887451172
2023-02-12T07:00:23.806Z,0.897521973
2023-02-12T07:01:24.516Z,0.917663574
2023-02-12T07:02:25.126Z,0.957946777
2023-02-12T07:03:25.722Z,0.947875977
2023-02-12T07:04:26.561Z,0.927734375
2023-02-12T07:05:27.264Z,0.917663574
2023-02-12T07:06:27.925Z,0.897521973
2023-02-12T07:07:28.568Z,0.927734375
2023-02-12T07:08:29.287Z,0.897521973
2023-02-12T07:09:30.878Z,0.877380371
2023-02-12T07:10:31.603Z,0.837097168
2023-02-12T07:11:32.349Z,0.806884766
2023-02-12T07:12:32.967Z,0.806884766
2023-02-12T07:13:33.649Z,0.766601563
2023-02-12T07:14:34.416Z,0.766601563
2023-02-12T07:15:34.981Z,0.776672363
2023-02-12T07:16:36.548Z,0.806884766
2023-02-12T07:17:37.197Z,0.85723877
2023-02-12T07:18:38.765Z,0.85723877
2023-02-12T07:19:40.296Z,0.887451172
2023-02-12T07:20:41.172Z,0.917663574
2023-02-12T07:21:42.313Z,0.887451172
2023-02-12T07:23:13.409Z,0.887451172
2023-02-12T07:24:14.040Z,0.887451172
2023-02-12T07:25:14.814Z,0.877380371
2023-02-12T07:26:15.486Z,0.877380371
2023-02-12T07:27:16.168Z,0.85723877
2023-02-12T07:28:16.993Z,0.85723877
2023-02-12T07:29:18.464Z,0.897521973
2023-02-12T07:30:19.112Z,0.947875977
2023-02-12T07:31:20.007Z,0.957946777
2023-02-12T07:32:20.478Z,0.99822998
2023-02-12T07:33:21.191Z,1.058654785
2023-02-12T07:34:21.796Z,1.068725586
2023-02-12T07:35:22.528Z,1.109008789
2023-02-12T07:36:23.227Z,1.129150391
2023-02-12T07:37:23.924Z,1.139221191
2023-02-12T07:38:24.637Z,1.169433594
2023-02-12T07:39:25.970Z,1.179504395
2023-02-12T07:40:26.602Z,1.280212402
2023-02-12T07:41:27.262Z,1.280212402
2023-02-12T07:42:28.013Z,1.310424805
2023-02-12T07:43:29.468Z,1.310424805
2023-02-12T07:44:30.273Z,1.340637207
2023-02-12T07:45:31.061Z,1.38092041
2023-02-12T07:46:31.642Z,1.421203613
2023-02-12T07:47:33.018Z,1.431274414
2023-02-12T07:48:33.734Z,1.491699219
2023-02-12T07:49:35.282Z,1.542053223
2023-02-12T07:50:35.942Z,1.64276123
2023-02-12T07:51:36.697Z,1.672973633
2023-02-12T07:52:37.437Z,1.703186035
2023-02-12T07:53:38.149Z,1.683044434
2023-02-12T07:54:38.834Z,1.713256836
2023-02-12T07:55:39.472Z,1.743469238
2023-02-12T07:56:40.256Z,1.723327637
2023-02-12T07:57:40.931Z,1.753540039
2023-02-12T07:59:12.966Z,1.773681641
2023-02-12T08:00:13.695Z,1.793823242
2023-02-12T08:01:14.358Z,1.854248047
2023-02-12T08:02:15.214Z,1.884460449
2023-02-12T08:03:15.824Z,1.904602051
2023-02-12T08:04:16.590Z,1.934814453
2023-02-12T08:05:17.174Z,2.005310059
2023-02-12T08:06:17.916Z,2.005310059
2023-02-12T08:07:18.462Z,2.015380859
2023-02-12T08:08:19.086Z,2.035522461
2023-02-12T08:09:20.589Z,2.075805664
2023-02-12T08:10:21.225Z,2.136230469
2023-02-12T08:11:22.117Z,2.186584473
2023-02-12T08:12:23.259Z,2.247009277
2023-02-12T08:13:23.900Z,2.28729248
2023-02-12T08:14:24.566Z,2.367858887
2023-02-12T08:15:25.404Z,2.428283691
2023-02-12T08:16:26.248Z,2.438354492
2023-02-12T08:17:26.925Z,2.438354492
2023-02-12T08:18:28.289Z,2.438354492
2023-02-12T08:19:29.466Z,2.478637695
2023-02-12T08:20:30.179Z,2.498779297
2023-02-12T08:21:30.915Z,2.528991699
2023-02-12T08:22:31.559Z,2.549133301
2023-02-12T08:23:32.220Z,2.589416504
2023-02-12T08:24:32.965Z,2.609558105
2023-02-12T08:25:33.594Z,2.629699707
2023-02-12T08:26:34.298Z,2.680053711
2023-02-12T08:27:34.960Z,2.690124512
2023-02-12T08:28:35.879Z,2.740478516
2023-02-12T08:29:36.993Z,2.740478516
2023-02-12T08:30:37.749Z,2.740478516
2023-02-12T08:31:38.416Z,2.760620117
2023-02-12T08:32:39.002Z,2.79083252
2023-02-12T08:33:39.700Z,2.841186523
2023-02-12T08:34:40.639Z,2.92175293
2023-02-12T08:36:12.770Z,2.951965332
2023-02-12T08:37:14.184Z,2.992248535
2023-02-12T08:38:14.966Z,3.022460938
2023-02-12T08:39:15.613Z,3.072814941
2023-02-12T08:40:16.702Z,3.082885742
2023-02-12T08:41:19.209Z,3.103027344
2023-02-12T08:42:17.918Z,3.123168945
2023-02-12T08:43:18.607Z,3.123168945
2023-02-12T08:44:19.299Z,3.153381348
2023-02-12T08:45:19.891Z,3.193664551
2023-02-12T08:46:20.639Z,3.193664551
2023-02-12T08:47:21.946Z,3.193664551
2023-02-12T08:48:23.509Z,3.223876953
2023-02-12T08:49:24.232Z,3.193664551
2023-02-12T08:50:25.787Z,3.223876953
2023-02-12T08:51:26.388Z,3.233947754
2023-02-12T08:52:26.983Z,3.264160156
2023-02-12T08:53:27.651Z,3.284301758
2023-02-12T08:54:28.277Z,3.284301758
2023-02-12T08:55:28.899Z,3.304443359
2023-02-12T08:56:29.590Z,3.31451416
2023-02-12T08:57:30.189Z,3.344726563
2023-02-12T08:58:30.862Z,3.354797363
2023-02-12T08:59:31.511Z,3.354797363
2023-02-12T09:00:32.826Z,3.354797363
2023-02-12T09:01:33.621Z,3.374938965
2023-02-12T09:02:34.180Z,3.374938965
2023-02-12T09:03:34.617Z,3.374938965
2023-02-12T09:04:35.284Z,3.374938965
2023-02-12T09:05:35.906Z,3.374938965
2023-02-12T09:06:36.518Z,3.385009766
2023-02-12T09:07:37.221Z,3.374938965
2023-02-12T09:08:37.818Z,3.354797363
2023-02-12T09:09:39.431Z,3.344726563
2023-02-12T09:10:40.071Z,3.334655762
2023-02-12T09:12:11.557Z,3.334655762
2023-02-12T09:13:12.227Z,3.334655762
2023-02-12T09:14:13.282Z,3.354797363
2023-02-12T09:15:13.877Z,3.374938965
2023-02-12T09:16:14.583Z,3.374938965
2023-02-12T09:17:15.072Z,3.385009766
2023-02-12T09:18:15.653Z,3.405151367
2023-02-12T09:19:16.205Z,3.385009766
2023-02-12T09:20:16.677Z,3.385009766
2023-02-12T09:21:18.289Z,3.405151367
2023-02-12T09:22:18.759Z,3.415222168
2023-02-12T09:23:19.344Z,3.415222168
2023-02-12T09:24:20.093Z,3.415222168
2023-02-12T09:25:20.617Z,3.44543457
2023-02-12T09:26:21.146Z,3.455505371
2023-02-12T09:27:21.911Z,3.44543457
2023-02-12T09:28:22.812Z,3.455505371
2023-02-12T09:29:23.505Z,3.455505371
2023-02-12T09:30:24.899Z,3.455505371
2023-02-12T09:31:25.701Z,3.455505371
2023-02-12T09:32:26.089Z,3.455505371
2023-02-12T09:33:26.641Z,3.485717773
2023-02-12T09:34:27.431Z,3.495788574
2023-02-12T09:35:27.837Z,3.526000977
2023-02-12T09:36:29.218Z,3.536071777
2023-02-12T09:37:29.710Z,3.556213379
2023-02-12T09:38:30.330Z,3.56628418
2023-02-12T09:39:31.140Z,3.586425781
2023-02-12T09:40:32.383Z,3.596496582
2023-02-12T09:41:33.094Z,3.626708984
2023-02-12T09:42:33.582Z,3.636779785
2023-02-12T09:43:34.172Z,3.677062988
2023-02-12T09:44:34.937Z,3.707275391
2023-02-12T09:45:35.402Z,3.717346191
2023-02-12T09:46:35.960Z,3.737487793
2023-02-12T09:47:36.709Z,3.747558594
2023-02-12T09:48:37.207Z,3.737487793
2023-02-12T09:49:37.712Z,3.767700195
2023-02-12T09:50:39.351Z,3.777770996
2023-02-12T09:51:40.659Z,3.767700195
2023-02-12T09:53:11.303Z,3.777770996
2023-02-12T09:54:12.028Z,3.777770996
2023-02-12T09:55:12.695Z,3.797912598
2023-02-12T09:56:13.032Z,3.818054199
2023-02-12T09:57:13.498Z,3.838195801
2023-02-12T09:58:14.058Z,3.858337402
2023-02-12T09:59:14.612Z,3.838195801
2023-02-12T10:00:16.008Z,3.878479004
2023-02-12T10:01:16.541Z,3.888549805
2023-02-12T10:02:16.966Z,3.918762207
2023-02-12T10:03:17.477Z,3.898620605
2023-02-12T10:04:18.318Z,3.918762207
2023-02-12T10:05:18.850Z,3.928833008
2023-02-12T10:06:19.408Z,3.95904541
2023-02-12T10:07:20.063Z,3.979187012
2023-02-12T10:08:24.519Z,3.989257813
2023-02-12T10:09:20.982Z,3.999328613
2023-02-12T10:10:22.590Z,4.019470215
2023-02-12T10:11:23.123Z,4.019470215
2023-02-12T10:12:23.579Z,4.059753418
2023-02-12T10:13:24.198Z,4.07989502
2023-02-12T10:14:24.701Z,4.110107422
2023-02-12T10:15:25.281Z,4.140319824
2023-02-12T10:16:25.955Z,4.160461426
2023-02-12T10:17:27.483Z,4.180603027
2023-02-12T10:18:28.222Z,4.200744629
2023-02-12T10:19:28.691Z,4.21081543
2023-02-12T10:20:29.967Z,4.251098633
2023-02-12T10:21:30.459Z,4.251098633
2023-02-12T10:22:30.967Z,4.261169434
2023-02-12T10:23:31.667Z,4.291381836
2023-02-12T10:24:32.206Z,4.291381836
2023-02-12T10:25:32.761Z,4.311523438
2023-02-12T10:26:33.321Z,4.351806641
2023-02-12T10:27:33.905Z,4.382019043
2023-02-12T10:28:34.712Z,4.392089844
2023-02-12T10:29:35.165Z,4.392089844
2023-02-12T10:30:36.623Z,4.442443848
2023-02-12T10:31:37.847Z,4.442443848
2023-02-12T10:32:38.939Z,4.47265625
2023-02-12T10:33:39.897Z,4.533081055
2023-02-12T10:35:11.758Z,4.543151855
2023-02-12T10:36:13.229Z,4.573364258
2023-02-12T10:37:14.006Z,4.613647461
2023-02-12T10:38:14.681Z,4.623718262
2023-02-12T10:39:15.273Z,4.623718262
2023-02-12T10:40:16.786Z,4.643859863
2023-02-12T10:41:18.207Z,4.674072266
2023-02-12T10:42:18.842Z,4.674072266
2023-02-12T10:43:19.572Z,4.674072266
2023-02-12T10:44:20.260Z,4.694213867
2023-02-12T10:45:21.028Z,4.694213867
2023-02-12T10:46:22.338Z,4.714355469
2023-02-12T10:47:22.938Z,4.714355469
2023-02-12T10:48:24.244Z,4.744567871
2023-02-12T10:49:25.909Z,4.744567871
2023-02-12T10:50:27.475Z,4.774780273
2023-02-12T10:51:28.136Z,4.794921875
2023-02-12T10:52:28.808Z,4.804992676
2023-02-12T10:53:29.370Z,4.804992676
2023-02-12T10:54:31.036Z,4.825134277
2023-02-12T10:55:31.676Z,4.85534668
2023-02-12T10:56:32.800Z,4.86541748
2023-02-12T10:57:33.468Z,4.875488281
2023-02-12T10:58:34.943Z,4.875488281
2023-02-12T10:59:35.972Z,4.925842285
2023-02-12T11:00:36.937Z,4.925842285
2023-02-12T11:01:37.582Z,4.966125488
2023-02-12T11:02:38.092Z,4.98626709
2023-02-12T11:03:38.693Z,5.036621094
2023-02-12T11:04:39.809Z,5.056762695
2023-02-12T11:06:11.098Z,5.086975098
2023-02-12T11:07:11.711Z,5.107116699